Time;durP1;ratioP1;P1;durP2;ratioP2;P2;SDS_P1;SDS_P2;PMS_P1;PMS_P2;Temp;Humidity;BMP_temperature;BMP_pressure;BME280_temperature;BME280_humidity;BME280_pressure;Samples;Min_cycle;Max_cycle;Signal;HPM_P1;HPM_P2
2023/02/27 00:00:49;;;;;;;;;;;;;;;15.28;87.11;99961.28;5071556;28;19924;-75
2023/02/27 00:03:15;;;;;;;;;;;;;;;15.28;87.25;99962.13;5071453;28;19916;-69
2023/02/27 00:05:41;;;;;;;;;;;;;;;15.28;87.22;99972.53;5060384;28;19927;-75
2023/02/27 00:08:06;;;;;;;;;;;;;;;15.26;86.90;99969.03;5052573;28;19916;-75
2023/02/27 00:10:31;;;;;;;;;;;;;;;15.25;87.17;99975.09;5051124;28;20406;-77
2023/02/27 00:12:57;;;;;;;;;;;;;;;15.22;87.13;99959.47;5059430;28;20279;-77
2023/02/27 00:15:22;;;;;;;;;;;;;;;15.22;87.38;99956.88;5071634;28;19916;-75
2023/02/27 00:17:47;;;;;;;;;;;;;;;15.17;88.17;99963.75;5071598;28;19975;-75
2023/02/27 00:20:14;;;;;;;;;;;;;;;15.18;88.37;99936.91;5070796;28;19920;-75
2023/02/27 00:22:40;;;;;;;;;;;;;;;15.11;88.80;99951.56;5071504;28;19923;-75
2023/02/27 00:25:06;;;;;;;;;;;;;;;15.10;88.89;99955.00;5070882;28;19999;-75
2023/02/27 00:27:32;;;;;;;;;;;;;;;15.07;89.13;99941.13;5071275;28;19916;-75
2023/02/27 00:29:57;;;;;;;;;;;;;;;15.06;89.13;99955.84;5071218;28;19912;-75
2023/02/27 00:32:23;;;;;;;;;;;;;;;15.06;89.24;99967.97;5053218;28;19923;-75
2023/02/27 00:34:48;;;;;;;;;;;;;;;15.04;89.43;99962.75;5035445;28;19962;-74
2023/02/27 00:37:14;;;;;;;;;;;;;;;15.03;89.67;99964.47;5071126;28;19920;-75
2023/02/27 00:39:39;;;;;;;;;;;;;;;15.00;89.79;99951.47;5070746;28;19916;-75
2023/02/27 00:42:04;;;;;;;;;;;;;;;14.98;89.99;99955.78;5070892;28;19920;-71
2023/02/27 00:44:29;;;;;;;;;;;;;;;14.96;90.14;99944.47;5070569;28;20410;-76
2023/02/27 00:46:55;;;;;;;;;;;;;;;14.97;90.09;99932.38;5070885;28;19969;-71
2023/02/27 00:49:20;;;;;;;;;;;;;;;14.91;90.14;99942.69;5070717;28;20371;-72
2023/02/27 00:51:45;;;;;;;;;;;;;;;14.94;90.17;99933.22;5070954;28;19920;-74
2023/02/27 00:54:11;;;;;;;;;;;;;;;14.93;90.46;99931.47;5070496;28;19924;-74
2023/02/27 00:56:37;;;;;;;;;;;;;;;14.90;90.81;99954.81;5070922;28;20330;-73
2023/02/27 00:59:03;;;;;;;;;;;;;;;14.85;90.92;99954.78;5069890;28;20389;-74
2023/02/27 01:01:28;;;;;;;;;;;;;;;14.83;91.40;99953.88;5070677;28;19916;-71
2023/02/27 01:03:53;;;;;;;;;;;;;;;14.78;91.69;99952.06;5070479;28;20362;-70
2023/02/27 01:06:18;;;;;;;;;;;;;;;14.81;91.90;99926.13;5070771;28;20015;-72
2023/02/27 01:08:44;;;;;;;;;;;;;;;14.76;92.49;99944.25;5070641;28;20310;-75
2023/02/27 01:11:09;;;;;;;;;;;;;;;14.75;93.10;99941.66;5070244;28;19963;-75
2023/02/27 01:13:36;;;;;;;;;;;;;;;14.71;93.49;99920.81;5070659;28;19917;-72
2023/02/27 01:16:01;;;;;;;;;;;;;;;14.72;93.77;99932.97;5070321;28;20386;-70
2023/02/27 01:18:26;;;;;;;;;;;;;;;14.70;93.83;99928.59;5067557;28;20006;-73
2023/02/27 01:20:52;;;;;;;;;;;;;;;14.67;94.11;99919.03;5049618;28;19921;-73
2023/02/27 01:23:18;;;;;;;;;;;;;;;14.65;94.34;99919.88;5052116;28;19931;-73
2023/02/27 01:25:43;;;;;;;;;;;;;;;14.65;94.27;99935.47;5049952;28;19956;-72
2023/02/27 01:28:08;;;;;;;;;;;;;;;14.65;94.42;99946.72;5050083;28;20371;-73
2023/02/27 01:30:33;;;;;;;;;;;;;;;14.62;94.99;99951.88;5049960;28;19975;-77
2023/02/27 01:32:59;;;;;;;;;;;;;;;14.60;95.23;99956.16;5065622;28;19913;-73
2023/02/27 01:35:24;;;;;;;;;;;;;;;14.59;95.72;99969.13;5070799;28;19916;-74
2023/02/27 01:37:49;;;;;;;;;;;;;;;14.56;95.59;99973.44;5070319;28;20317;-73
2023/02/27 01:40:14;;;;;;;;;;;;;;;14.50;96.12;99954.31;5058415;28;19927;-72
2023/02/27 01:42:40;;;;;;;;;;;;;;;14.49;96.66;99975.94;5057496;28;20363;-71
2023/02/27 01:45:08;;;;;;;;;;;;;;;14.49;96.69;99963.84;5059614;28;19970;-72
2023/02/27 01:47:33;;;;;;;;;;;;;;;14.53;96.77;99972.53;5049633;28;19917;-70
2023/02/27 01:49:59;;;;;;;;;;;;;;;14.49;96.95;99966.44;5049865;28;19928;-72
2023/02/27 01:52:24;;;;;;;;;;;;;;;14.46;97.38;99965.53;5057666;28;19923;-71
2023/02/27 01:54:49;;;;;;;;;;;;;;;14.47;97.24;99957.75;5070309;28;19932;-71
2023/02/27 01:57:15;;;;;;;;;;;;;;;14.45;97.57;99943.00;5070513;28;19917;-75
2023/02/27 01:59:41;;;;;;;;;;;;;;;14.42;97.97;99929.97;5069934;28;19912;-73
2023/02/27 02:02:26;;;;;;;;;;;;;;;14.35;98.69;99944.59;5070031;28;19924;-73
2023/02/27 02:04:53;;;;;;;;;;;;;;;14.30;99.16;99944.53;5069751;28;19916;-73
2023/02/27 02:07:20;;;;;;;;;;;;;;;14.26;99.68;99937.56;5070155;28;19939;-73
2023/02/27 02:09:51;;;;;;;;;;;;;;;14.20;100.00;99935.75;5069839;28;19916;-72
2023/02/27 02:12:17;;;;;;;;;;;;;;;14.21;100.00;99957.41;5073260;28;20386;-74
2023/02/27 02:14:43;;;;;;;;;;;;;;;14.19;100.00;99941.81;5073094;28;19912;-74
2023/02/27 02:17:14;;;;;;;;;;;;;;;14.26;100.00;99960.06;5073955;28;20309;-72
2023/02/27 02:19:46;;;;;;;;;;;;;;;14.25;100.00;99948.78;5073049;28;19917;-74
2023/02/27 02:22:22;;;;;;;;;;;;;;;14.26;100.00;99968.72;5073513;28;19960;-73
2023/02/27 02:25:02;;;;;;;;;;;;;;;14.29;100.00;99993.84;5055772;28;20376;-73
2023/02/27 02:27:31;;;;;;;;;;;;;;;14.31;99.90;100015.53;5073468;28;19916;-73
2023/02/27 02:30:14;;;;;;;;;;;;;;;14.32;99.72;100031.13;5065035;28;20375;-72
2023/02/27 02:32:43;;;;;;;;;;;;;;;14.32;99.65;100040.66;5065712;28;20458;-75
2023/02/27 02:35:17;;;;;;;;;;;;;;;14.24;100.00;100049.19;5073082;28;19917;-73
2023/02/27 02:37:51;;;;;;;;;;;;;;;14.27;99.96;100053.56;5073137;28;19920;-71
2023/02/27 02:40:16;;;;;;;;;;;;;;;14.33;99.73;100047.56;5072962;28;19924;-71
2023/02/27 02:43:08;;;;;;;;;;;;;;;14.36;99.66;100052.81;5072603;28;19924;-73
2023/02/27 02:45:36;;;;;;;;;;;;;;;14.30;99.80;100053.59;4974449;28;19928;-72
2023/02/27 02:48:01;;;;;;;;;;;;;;;14.30;99.89;100044.94;4990651;28;19918;-73
2023/02/27 02:50:52;;;;;;;;;;;;;;;14.28;100.00;100038.84;4990664;28;19981;-74
2023/02/27 02:53:20;;;;;;;;;;;;;;;14.24;100.00;100030.13;4934142;29;19929;-75
2023/02/27 02:55:49;;;;;;;;;;;;;;;14.25;100.00;100042.25;4952431;29;19948;-73
2023/02/27 02:58:14;;;;;;;;;;;;;;;14.26;100.00;100057.00;4947317;29;19981;-75
2023/02/27 03:00:45;;;;;;;;;;;;;;;14.27;100.00;100050.97;4946570;29;19922;-75
2023/02/27 03:03:23;;;;;;;;;;;;;;;14.26;100.00;100054.41;4952383;29;20031;-73
2023/02/27 03:05:55;;;;;;;;;;;;;;;14.27;100.00;100053.56;4952166;29;19957;-73
2023/02/27 03:08:23;;;;;;;;;;;;;;;14.22;100.00;100050.03;4951958;29;19972;-73
2023/02/27 03:10:56;;;;;;;;;;;;;;;14.20;100.00;100052.56;4952074;29;19945;-75
2023/02/27 03:13:37;;;;;;;;;;;;;;;14.19;100.00;100055.16;4952109;29;19922;-74
2023/02/27 03:16:21;;;;;;;;;;;;;;;14.19;100.00;100049.97;4952350;29;20021;-75
2023/02/27 03:18:52;;;;;;;;;;;;;;;14.17;100.00;100049.09;4952001;29;19918;-75
2023/02/27 03:21:25;;;;;;;;;;;;;;;14.13;100.00;100047.25;4955367;28;19918;-74
2023/02/27 03:23:52;;;;;;;;;;;;;;;14.14;100.00;100041.22;4970043;28;19985;-76
2023/02/27 03:26:23;;;;;;;;;;;;;;;14.00;100.00;100034.09;4968663;28;19917;-75
2023/02/27 03:28:58;;;;;;;;;;;;;;;13.87;100.00;100029.56;4971293;28;19986;-75
2023/02/27 03:31:45;;;;;;;;;;;;;;;13.81;100.00;100021.69;5030022;28;19913;-74
2023/02/27 03:34:18;;;;;;;;;;;;;;;13.71;100.00;100044.00;5029587;28;19927;-70
2023/02/27 03:36:47;;;;;;;;;;;;;;;13.68;100.00;100055.22;5029522;28;20032;-73
2023/02/27 03:39:26;;;;;;;;;;;;;;;13.71;100.00;100044.00;5029616;28;20431;-72
2023/02/27 03:41:56;;;;;;;;;;;;;;;13.73;100.00;100044.88;5024252;28;19952;-72
2023/02/27 03:44:27;;;;;;;;;;;;;;;13.77;100.00;100053.59;5014410;28;20379;-74
2023/02/27 03:46:52;;;;;;;;;;;;;;;13.80;100.00;100043.28;5026784;28;19921;-72
2023/02/27 03:49:18;;;;;;;;;;;;;;;13.82;100.00;100046.75;5029664;28;19917;-71
2023/02/27 03:51:43;;;;;;;;;;;;;;;13.87;100.00;100058.13;5029616;28;20044;-74
2023/02/27 03:54:18;;;;;;;;;;;;;;;13.84;100.00;100065.84;5037706;28;19959;-74
2023/02/27 03:56:49;;;;;;;;;;;;;;;13.80;100.00;100069.22;5072066;28;19939;-73
2023/02/27 03:59:14;;;;;;;;;;;;;;;13.75;100.00;100070.00;5072481;28;19974;-71
2023/02/27 04:01:41;;;;;;;;;;;;;;;13.78;100.00;100076.09;5071926;28;20302;-70
2023/02/27 04:04:09;;;;;;;;;;;;;;;13.71;100.00;100072.53;5071859;28;19916;-72
2023/02/27 04:09:41;;;;;;;;;;;;;;;13.65;100.00;100070.69;5072003;28;19923;-70
2023/02/27 04:12:26;;;;;;;;;;;;;;;13.61;100.00;100070.59;5071777;28;20442;-72
2023/02/27 04:15:02;;;;;;;;;;;;;;;13.53;100.00;100079.16;5071899;28;19970;-72
2023/02/27 04:17:33;;;;;;;;;;;;;;;13.48;100.00;100079.91;5071802;28;19921;-71
2023/02/27 04:19:58;;;;;;;;;;;;;;;13.48;100.00;100072.13;5071991;28;19955;-70
2023/02/27 04:22:38;;;;;;;;;;;;;;;13.51;100.00;100090.34;5072247;28;19955;-71
2023/02/27 04:25:03;;;;;;;;;;;;;;;13.52;100.00;100103.31;5071815;28;19924;-76
2023/02/27 04:27:29;;;;;;;;;;;;;;;13.53;100.00;100114.56;5071570;28;19916;-71
2023/02/27 04:30:01;;;;;;;;;;;;;;;13.53;100.00;100114.56;5071745;28;19917;-76
2023/02/27 04:32:50;;;;;;;;;;;;;;;13.58;100.00;100125.91;5071341;28;20313;-74
2023/02/27 04:35:18;;;;;;;;;;;;;;;13.55;100.00;100134.50;4989616;28;19965;-74
2023/02/27 04:37:52;;;;;;;;;;;;;;;13.58;100.00;100133.66;4989723;28;19995;-72
2023/02/27 04:40:20;;;;;;;;;;;;;;;13.56;100.00;100137.97;4990118;28;19917;-71
2023/02/27 04:42:48;;;;;;;;;;;;;;;13.58;100.00;100144.94;4989814;28;20007;-76
2023/02/27 04:45:16;;;;;;;;;;;;;;;13.57;100.00;100158.75;4989613;28;20016;-71
2023/02/27 04:47:53;;;;;;;;;;;;;;;13.51;100.00;100162.94;4989584;28;20311;-71
2023/02/27 04:50:23;;;;;;;;;;;;;;;13.55;100.00;100167.34;4989012;28;20478;-74
2023/02/27 04:52:53;;;;;;;;;;;;;;;13.56;100.00;100166.50;4981457;28;20084;-76
2023/02/27 04:55:21;;;;;;;;;;;;;;;13.63;100.00;100185.66;4989707;28;19932;-71
2023/02/27 04:57:53;;;;;;;;;;;;;;;13.62;100.00;100183.91;4989556;28;20448;-75
2023/02/27 05:00:21;;;;;;;;;;;;;;;13.51;100.00;100186.28;4989580;28;19917;-77
2023/02/27 05:03:06;;;;;;;;;;;;;;;13.45;100.00;100179.25;4989220;28;19918;-71
2023/02/27 05:05:33;;;;;;;;;;;;;;;13.31;100.00;100176.34;4950479;29;20471;-71
2023/02/27 05:08:02;;;;;;;;;;;;;;;13.24;100.00;100187.41;4950903;29;19929;-71
2023/02/27 05:10:32;;;;;;;;;;;;;;;13.23;100.00;100194.34;4950663;29;20300;-74
2023/02/27 05:13:01;;;;;;;;;;;;;;;13.27;100.00;100200.44;4981708;28;19994;-72
2023/02/27 05:15:29;;;;;;;;;;;;;;;13.30;100.00;100204.84;4988871;28;19925;-75
2023/02/27 05:18:00;;;;;;;;;;;;;;;13.35;100.00;100206.66;4989078;28;20400;-75
2023/02/27 05:20:40;;;;;;;;;;;;;;;13.40;100.00;100218.03;4988952;28;20008;-73
2023/02/27 05:23:20;;;;;;;;;;;;;;;13.45;100.00;100214.69;4989157;28;19918;-71
2023/02/27 05:25:54;;;;;;;;;;;;;;;13.51;100.00;100220.00;4989250;28;20013;-76
2023/02/27 05:28:22;;;;;;;;;;;;;;;13.50;100.00;100226.91;5008276;28;19925;-75
2023/02/27 05:30:50;;;;;;;;;;;;;;;13.55;100.00;100224.41;5008680;28;20315;-75
2023/02/27 05:33:30;;;;;;;;;;;;;;;13.49;100.00;100219.09;5008925;28;19917;-74
2023/02/27 05:36:01;;;;;;;;;;;;;;;13.48;100.00;100227.72;5008651;28;20060;-75
2023/02/27 05:38:30;;;;;;;;;;;;;;;13.49;100.00;100232.06;5002442;28;19980;-74
2023/02/27 05:40:59;;;;;;;;;;;;;;;13.51;100.00;100245.94;4998811;28;19976;-71
2023/02/27 05:43:30;;;;;;;;;;;;;;;13.51;100.00;100240.75;5055674;28;19923;-73
2023/02/27 05:45:58;;;;;;;;;;;;;;;13.53;100.00;100242.53;5071749;28;19916;-71
2023/02/27 05:48:29;;;;;;;;;;;;;;;13.57;100.00;100251.22;5074932;28;19917;-78
2023/02/27 05:50:56;;;;;;;;;;;;;;;13.55;100.00;100247.75;5058632;28;20006;-78
2023/02/27 05:53:25;;;;;;;;;;;;;;;13.55;100.00;100247.75;5053558;28;19917;-73
2023/02/27 05:55:56;;;;;;;;;;;;;;;13.46;100.00;100251.03;5054108;28;19932;-76
2023/02/27 05:58:42;;;;;;;;;;;;;;;13.49;100.00;100252.81;5054783;28;19917;-72
2023/02/27 06:01:08;;;;;;;;;;;;;;;13.52;100.00;100252.84;5053813;28;19916;-74
2023/02/27 06:03:34;;;;;;;;;;;;;;;13.61;100.00;100247.88;5054641;28;19935;-70
2023/02/27 06:06:00;;;;;;;;;;;;;;;13.64;100.00;100237.56;5054120;28;20315;-70
2023/02/27 06:08:26;;;;;;;;;;;;;;;13.72;100.00;100233.41;5054562;28;19921;-73
2023/02/27 06:10:51;;;;;;;;;;;;;;;13.85;100.00;100237.09;5058018;28;19912;-71
2023/02/27 06:13:17;;;;;;;;;;;;;;;13.96;100.00;100260.69;5066967;28;19921;-73
2023/02/27 06:15:45;;;;;;;;;;;;;;;14.05;100.00;100247.00;5068788;28;19920;-70
2023/02/27 06:18:11;;;;;;;;;;;;;;;14.11;100.00;100248.88;5071554;28;20019;-72
2023/02/27 06:20:37;;;;;;;;;;;;;;;14.17;100.00;100261.97;5066353;28;19920;-70
2023/02/27 06:23:03;;;;;;;;;;;;;;;14.19;100.00;100273.22;5063091;28;19966;-71
2023/02/27 06:25:28;;;;;;;;;;;;;;;14.28;100.00;100298.50;5072737;28;19920;-73
2023/02/27 06:27:53;;;;;;;;;;;;;;;14.28;94.61;100351.31;5071785;28;19983;-72
2023/02/27 06:30:19;;;;;;;;;;;;;;;14.13;85.88;100376.97;5071076;28;20386;-72
2023/02/27 06:32:44;;;;;;;;;;;;;;;13.93;83.94;100372.22;5068607;28;19916;-72
2023/02/27 06:35:09;;;;;;;;;;;;;;;13.75;80.85;100383.94;5062262;28;19928;-70
2023/02/27 06:37:35;;;;;;;;;;;;;;;13.55;79.15;100393.84;5053787;28;20457;-73
2023/02/27 06:40:00;;;;;;;;;;;;;;;13.52;78.22;100392.91;5053737;28;19948;-71
2023/02/27 06:42:25;;;;;;;;;;;;;;;13.46;78.47;100372.00;5055514;28;20414;-70
2023/02/27 06:44:51;;;;;;;;;;;;;;;13.46;78.42;100377.19;5062435;28;19920;-76
2023/02/27 06:47:17;;;;;;;;;;;;;;;13.50;78.29;100384.22;5053489;28;19921;-76
2023/02/27 06:49:42;;;;;;;;;;;;;;;13.50;77.16;100382.50;5053294;28;20078;-72
2023/02/27 06:52:07;;;;;;;;;;;;;;;13.55;77.92;100377.44;5060073;28;19920;-73
2023/02/27 06:54:33;;;;;;;;;;;;;;;13.57;77.15;100381.81;5066389;28;20302;-73
2023/02/27 06:56:58;;;;;;;;;;;;;;;13.62;76.94;100383.63;5071823;28;19917;-73
2023/02/27 06:59:24;;;;;;;;;;;;;;;13.66;76.76;100383.75;5072747;28;20344;-73
2023/02/27 07:01:49;;;;;;;;;;;;;;;13.79;76.42;100377.09;5072839;28;19917;-73
2023/02/27 07:04:15;;;;;;;;;;;;;;;13.76;75.91;100379.63;5072277;28;19923;-71
2023/02/27 07:06:41;;;;;;;;;;;;;;;13.80;76.53;100378.00;5056006;28;19925;-73
2023/02/27 07:09:06;;;;;;;;;;;;;;;13.93;76.33;100384.31;5061285;28;19921;-72
2023/02/27 07:11:31;;;;;;;;;;;;;;;14.05;76.12;100388.03;5053828;28;20473;-74
2023/02/27 07:13:56;;;;;;;;;;;;;;;14.18;75.44;100391.81;5052161;28;19925;-72
2023/02/27 07:16:22;;;;;;;;;;;;;;;14.32;74.95;100392.06;5051701;28;19923;-74
2023/02/27 07:18:47;;;;;;;;;;;;;;;14.37;74.65;100392.19;5051916;28;20312;-72
2023/02/27 07:21:14;;;;;;;;;;;;;;;14.42;74.42;100392.25;5051824;28;19928;-73
2023/02/27 07:23:39;;;;;;;;;;;;;;;14.46;74.63;100391.50;5032883;28;19923;-74
2023/02/27 07:26:05;;;;;;;;;;;;;;;14.54;74.23;100395.09;5051684;28;20600;-74
2023/02/27 07:28:30;;;;;;;;;;;;;;;14.63;73.83;100400.47;5056630;28;19925;-73
2023/02/27 07:30:55;;;;;;;;;;;;;;;14.69;74.57;100400.63;5036207;28;19917;-75
2023/02/27 07:33:21;;;;;;;;;;;;;;;14.76;74.08;100400.75;5056601;28;19920;-74
2023/02/27 07:35:46;;;;;;;;;;;;;;;14.82;73.77;100408.66;5053067;28;19920;-71
2023/02/27 07:38:12;;;;;;;;;;;;;;;14.84;73.70;100402.63;5053542;28;19963;-71
2023/02/27 07:40:37;;;;;;;;;;;;;;;14.88;73.29;100398.38;5072082;28;19917;-74
2023/02/27 07:43:02;;;;;;;;;;;;;;;14.90;72.79;100403.59;5071566;28;19916;-74
2023/02/27 07:45:28;;;;;;;;;;;;;;;14.93;73.64;100404.53;5069987;28;19921;-70
2023/02/27 07:47:53;;;;;;;;;;;;;;;15.01;72.24;100402.94;5054589;28;19927;-74
2023/02/27 07:50:19;;;;;;;;;;;;;;;15.02;71.66;100407.28;5071912;28;19912;-74
2023/02/27 07:52:44;;;;;;;;;;;;;;;15.04;71.91;100408.19;5052823;28;19921;-71
2023/02/27 07:55:11;;;;;;;;;;;;;;;15.12;71.07;100407.47;5052204;28;19980;-71
2023/02/27 07:57:36;;;;;;;;;;;;;;;15.10;71.90;100403.94;5052420;28;19917;-75
2023/02/27 08:00:05;;;;;;;;;;;;;;;15.10;71.07;100412.59;5052117;28;19924;-75
2023/02/27 08:02:31;;;;;;;;;;;;;;;15.14;70.82;100417.03;5052117;28;20402;-73
2023/02/27 08:04:56;;;;;;;;;;;;;;;15.27;69.90;100409.44;5052181;28;19917;-75
2023/02/27 08:07:22;;;;;;;;;;;;;;;15.30;69.81;100405.19;5051979;28;19924;-74
2023/02/27 08:09:47;;;;;;;;;;;;;;;15.47;69.31;100407.16;5051692;28;19924;-73
2023/02/27 08:12:12;;;;;;;;;;;;;;;15.50;69.48;100405.50;5052114;28;20388;-73
2023/02/27 08:14:38;;;;;;;;;;;;;;;15.61;68.87;100410.84;5052196;28;20034;-73
2023/02/27 08:17:03;;;;;;;;;;;;;;;15.67;68.37;100415.28;5032999;28;20375;-71
2023/02/27 08:19:29;;;;;;;;;;;;;;;15.78;68.68;100418.06;5033897;28;20032;-74
2023/02/27 08:21:54;;;;;;;;;;;;;;;15.96;67.58;100422.66;5051868;28;20306;-71
2023/02/27 08:24:19;;;;;;;;;;;;;;;16.08;66.56;100420.22;5051868;28;19924;-73
2023/02/27 08:26:45;;;;;;;;;;;;;;;16.22;65.94;100429.97;5051693;28;19917;-70
2023/02/27 08:29:10;;;;;;;;;;;;;;;16.28;65.85;100428.31;5051488;28;20375;-71
2023/02/27 08:31:35;;;;;;;;;;;;;;;16.32;66.70;100431.81;5051767;28;20307;-70
2023/02/27 08:34:00;;;;;;;;;;;;;;;16.37;65.21;100437.97;5050307;28;20594;-73
2023/02/27 08:36:26;;;;;;;;;;;;;;;16.39;65.18;100438.88;5052106;28;19960;-70
2023/02/27 08:38:51;;;;;;;;;;;;;;;16.42;65.56;100435.44;5051688;28;19917;-70
2023/02/27 08:41:16;;;;;;;;;;;;;;;16.52;65.96;100433.81;5033933;28;19923;-71
2023/02/27 08:43:42;;;;;;;;;;;;;;;16.58;65.58;100439.09;5051453;28;20443;-72
2023/02/27 08:46:07;;;;;;;;;;;;;;;16.65;64.93;100440.94;5051443;28;19916;-70
2023/02/27 08:48:34;;;;;;;;;;;;;;;16.75;65.16;100441.91;5050443;28;20146;-70
2023/02/27 08:50:59;;;;;;;;;;;;;;;16.84;65.24;100444.59;5051248;28;19921;-73
2023/02/27 08:53:25;;;;;;;;;;;;;;;16.91;65.75;100442.94;5051213;28;20294;-74
2023/02/27 08:55:52;;;;;;;;;;;;;;;16.97;66.65;100443.91;5051259;28;20306;-73
2023/02/27 08:58:17;;;;;;;;;;;;;;;17.03;67.78;100437.00;5051268;28;19921;-70
2023/02/27 09:00:43;;;;;;;;;;;;;;;17.07;67.75;100441.38;5033162;28;19983;-71
2023/02/27 09:03:08;;;;;;;;;;;;;;;17.17;67.57;100448.47;5051300;28;20654;-75
2023/02/27 09:05:34;;;;;;;;;;;;;;;17.19;67.02;100454.53;5059424;28;20073;-70
2023/02/27 09:08:00;;;;;;;;;;;;;;;17.25;67.20;100458.97;5071537;28;19946;-70
2023/02/27 09:10:26;;;;;;;;;;;;;;;17.24;67.15;100462.44;5071047;28;19977;-73
2023/02/27 09:12:51;;;;;;;;;;;;;;;17.24;67.35;100455.47;5071091;28;20329;-74
2023/02/27 09:15:16;;;;;;;;;;;;;;;17.28;69.67;100452.03;5071193;28;19924;-74
2023/02/27 09:17:42;;;;;;;;;;;;;;;17.35;69.45;100449.50;5071135;28;19941;-71
2023/02/27 09:20:08;;;;;;;;;;;;;;;17.40;69.20;100456.47;5070480;28;19931;-72
2023/02/27 09:22:34;;;;;;;;;;;;;;;17.34;69.47;100458.16;5071141;28;19916;-69
2023/02/27 09:24:59;;;;;;;;;;;;;;;17.29;69.69;100450.28;5071239;28;19940;-71
2023/02/27 09:27:27;;;;;;;;;;;;;;;17.35;70.07;100455.56;5070939;28;19917;-72
2023/02/27 09:29:54;;;;;;;;;;;;;;;17.38;70.22;100466.03;5070739;28;20007;-74
2023/02/27 09:32:23;;;;;;;;;;;;;;;17.38;70.20;100459.94;5052745;28;20428;-70
2023/02/27 09:34:49;;;;;;;;;;;;;;;17.45;69.83;100452.16;5071005;28;19916;-70
2023/02/27 09:37:15;;;;;;;;;;;;;;;17.47;69.41;100454.81;5071075;28;19916;-70
2023/02/27 09:39:40;;;;;;;;;;;;;;;17.54;69.77;100455.72;5051817;28;19923;-70
2023/02/27 09:42:14;;;;;;;;;;;;;;;17.57;70.08;100450.50;5070835;28;20007;-73
2023/02/27 09:44:44;;;;;;;;;;;;;;;17.70;70.05;100441.91;5070523;28;20345;-70
2023/02/27 09:50:07;;;;;;;22.85;3.65;;;;;;;17.81;69.92;100438.50;5105170;27;20129;-71
2023/02/27 09:52:36;;;;;;;17.90;3.97;;;;;;;17.89;70.37;100440.31;5089016;28;20046;-70
2023/02/27 09:55:04;;;;;;;19.02;4.75;;;;;;;18.02;70.11;100437.78;5091948;28;20024;-73
2023/02/27 09:58:47;;;;;;;29.85;6.38;;;;;;;17.91;71.63;100406.38;5118014;27;20131;-71
2023/02/27 10:01:31;;;;;;;31.52;5.35;;;;;;;18.16;71.46;100430.91;5105174;28;20035;-70
2023/02/27 10:03:57;;;;;;;27.70;6.90;;;;;;;18.25;72.03;100438.78;5102690;28;20038;-73
2023/02/27 10:06:22;;;;;;;39.67;8.52;;;;;;;18.37;71.01;100439.75;5108351;28;20027;-69
2023/02/27 10:09:41;;;;;;;32.55;8.02;;;;;;;18.36;70.54;100438.00;5091158;28;20067;-69
2023/02/27 10:12:28;;;;;;;36.00;7.82;;;;;;;18.43;71.00;100442.38;5085145;28;20037;-75
2023/02/27 10:15:16;;;;;;;37.50;11.05;;;;;;;18.53;70.75;100432.81;5085116;28;20068;-69
2023/02/27 10:18:10;;;;;;;38.17;8.80;;;;;;;18.70;71.11;100432.88;5085069;28;20029;-69
2023/02/27 10:20:42;;;;;;;43.45;8.27;;;;;;;18.72;69.38;100431.16;5024818;28;20056;-76
2023/02/27 10:23:15;;;;;;;31.25;8.05;;;;;;;18.73;69.00;100443.38;5035100;28;20080;-75
2023/02/27 10:25:47;;;;;;;41.55;7.20;;;;;;;18.61;68.51;100417.19;5026543;28;20053;-69
2023/02/27 10:28:19;;;;;;;38.78;7.95;;;;;;;18.67;67.92;100425.91;5043291;28;20039;-68
2023/02/27 10:30:50;;;;;;;32.67;7.07;;;;;;;18.74;67.13;100424.16;5039780;28;20181;-72
2023/02/27 10:33:37;;;;;;;36.72;7.50;;;;;;;18.70;67.27;100396.28;5038642;28;20056;-74
2023/02/27 10:36:10;;;;;;;33.97;7.93;;;;;;;18.93;67.54;100409.44;5042216;28;20044;-72
2023/02/27 10:38:40;;;;;;;43.15;7.47;;;;;;;19.01;66.74;100406.81;5044233;28;20566;-73
2023/02/27 10:41:10;;;;;;;40.42;8.52;;;;;;;19.05;67.13;100416.41;5041779;28;20415;-69
2023/02/27 10:43:35;;;;;;;37.40;6.13;;;;;;;19.10;66.60;100411.19;5035378;28;20037;-72
2023/02/27 10:46:06;;;;;;;38.40;8.43;;;;;;;19.12;65.84;100405.09;5035242;28;20038;-71
2023/02/27 10:48:31;;;;;;;;;;;;;;;19.12;66.57;100414.69;5034630;28;20026;-69
2023/02/27 10:51:19;;;;;;;42.45;8.55;;;;;;;19.17;66.74;100411.19;5029117;28;20338;-71
2023/02/27 10:53:45;;;;;;;43.65;7.95;;;;;;;19.16;66.40;100405.97;5024064;28;20476;-70
2023/02/27 10:56:17;;;;;;;29.70;7.25;;;;;;;19.27;66.34;100408.59;5023918;28;20173;-70
2023/02/27 10:58:43;;;;;;;39.22;7.80;;;;;;;19.30;65.96;100404.22;5102539;28;20036;-70
2023/02/27 11:01:10;;;;;;;41.88;8.38;;;;;;;19.43;65.98;100399.84;5106916;28;20031;-70
2023/02/27 11:03:40;;;;;;;45.05;8.30;;;;;;;19.55;65.10;100405.09;5106836;28;20024;-71
2023/02/27 11:06:11;;;;;;;35.42;6.88;;;;;;;19.55;63.32;100399.84;5110116;28;20037;-69
2023/02/27 11:08:36;;;;;;;43.30;7.88;;;;;;;19.63;64.12;100401.59;5110956;28;20482;-72
2023/02/27 11:11:03;;;;;;;46.20;7.88;;;;;;;19.69;63.36;100391.97;5101990;28;20036;-72
2023/02/27 11:13:31;;;;;;;42.95;7.65;;;;;;;19.71;62.26;100395.47;5090385;28;20557;-71
2023/02/27 11:16:15;;;;;;;34.53;7.22;;;;;;;19.77;62.81;100398.94;5101017;28;20032;-69
2023/02/27 11:18:46;;;;;;;44.53;7.93;;;;;;;19.93;62.07;100394.56;5102669;28;20464;-72
2023/02/27 11:21:19;;;;;;;42.30;7.63;;;;;;;19.90;62.00;100389.31;5077134;28;20021;-72
2023/02/27 11:23:55;;;;;;;39.55;7.75;;;;;;;19.88;62.07;100379.72;5071921;28;21035;-71
2023/02/27 11:26:35;;;;;;;35.05;6.68;;;;;;;19.93;60.76;100378.84;5071708;28;20054;-74
2023/02/27 11:29:13;;;;;;;;;;;;;;;19.86;61.40;100377.97;5073273;28;20065;-73
2023/02/27 11:31:54;;;;;;;38.03;7.20;;;;;;;19.77;61.29;100373.59;5075205;28;19926;-71
2023/02/27 11:34:37;;;;;;;40.22;8.38;;;;;;;19.80;61.72;100370.09;5072475;28;20029;-70
2023/02/27 11:37:24;;;;;;;32.15;6.95;;;;;;;19.70;61.26;100380.63;5090190;28;20033;-68
2023/02/27 11:40:18;;;;;;;33.47;7.25;;;;;;;19.71;61.54;100378.84;5091165;28;20020;-72
2023/02/27 11:42:50;;;;;;;25.30;5.95;;;;;;;19.61;61.48;100371.91;5028994;28;20567;-70
2023/02/27 11:45:20;;;;;;;32.08;7.13;;;;;;;19.61;61.05;100385.84;5028379;28;20034;-70
2023/02/27 11:47:53;;;;;;;36.92;6.45;;;;;;;19.67;60.50;100377.13;5028664;28;20041;-69
2023/02/27 11:50:38;;;;;;;26.58;6.30;;;;;;;19.68;59.73;100382.34;5028418;28;20022;-71
2023/02/27 11:53:14;;;;;;;35.97;6.63;;;;;;;19.69;59.63;100372.78;5026040;28;20120;-72
2023/02/27 11:55:41;;;;;;;35.10;6.70;;;;;;;19.60;58.50;100383.25;5010416;28;20026;-72
2023/02/27 11:58:17;;;;;;;26.17;5.57;;;;;;;19.59;59.23;100373.63;5020179;28;20065;-72
2023/02/27 12:00:53;;;;;;;32.67;7.57;;;;;;;19.73;58.84;100384.97;5010969;28;20029;-71
2023/02/27 12:03:30;;;;;;;32.05;6.57;;;;;;;19.64;58.64;100377.13;5028649;28;20029;-73
2023/02/27 12:05:59;;;;;;;27.20;6.03;;;;;;;19.47;58.51;100337.91;5012757;28;20099;-70
2023/02/27 12:08:33;;;;;;;39.33;6.18;;;;;;;19.72;59.13;100373.59;5027248;28;20098;-71
2023/02/27 12:11:10;;;;;;;32.78;7.20;;;;;;;19.73;59.17;100372.72;5028609;28;20033;-70
2023/02/27 12:13:41;;;;;;;34.17;6.45;;;;;;;19.66;58.39;100381.47;5027151;28;20528;-70
2023/02/27 12:16:35;;;;;;;32.00;6.93;;;;;;;19.61;59.20;100367.53;5026293;28;20049;-71
2023/02/27 12:19:11;;;;;;;39.88;7.40;;;;;;;19.58;58.51;100380.63;5036878;28;21381;-69
2023/02/27 12:21:44;;;;;;;26.92;5.28;;;;;;;19.48;58.85;100377.16;5070657;28;20573;-69
2023/02/27 12:24:44;;;;;;;30.95;6.80;;;;;;;19.37;58.60;100374.53;5069693;28;20024;-68
2023/02/27 12:27:41;;;;;;;40.55;7.15;;;;;;;19.32;58.07;100376.28;5008081;28;20500;-69
2023/02/27 12:30:15;;;;;;;28.75;6.07;;;;;;;19.08;58.60;100353.63;4973410;28;20097;-73
2023/02/27 12:32:57;;;;;;;25.23;6.07;;;;;;;19.30;58.66;100378.06;4989220;28;20570;-72
2023/02/27 12:35:28;;;;;;;29.00;6.13;;;;;;;19.30;59.08;100371.94;4973249;28;20641;-70
2023/02/27 12:37:55;;;;;;;31.38;6.78;;;;;;;19.19;59.17;100358.84;4967969;28;20521;-72